Time;durP1;ratioP1;P1;durP2;ratioP2;P2;SDS_P1;SDS_P2;PMS_P1;PMS_P2;Temp;Humidity;BMP_temperature;BMP_pressure;BME280_temperature;BME280_humidity;BME280_pressure;Samples;Min_cycle;Max_cycle;Signal;HPM_P1;HPM_P2
2022/09/15 00:00:56;;;;;;;1.80;1.48;;;;;;;18.16;100.00;95952.47;4919185;29;20294;-53
2022/09/15 00:03:23;;;;;;;2.20;1.40;;;;;;;18.11;100.00;95955.75;4919611;29;20239;-53
2022/09/15 00:05:53;;;;;;;1.58;1.45;;;;;;;18.10;100.00;95947.94;4918774;29;20212;-55
2022/09/15 00:08:19;;;;;;;1.98;1.77;;;;;;;18.04;100.00;95951.41;4918814;29;20243;-55
2022/09/15 00:10:47;;;;;;;2.28;1.67;;;;;;;17.96;100.00;95946.28;4919340;29;20251;-54
2022/09/15 00:13:15;;;;;;;2.28;1.83;;;;;;;17.90;100.00;95948.75;4919302;29;20227;-54
2022/09/15 00:15:42;;;;;;;2.92;1.55;;;;;;;17.86;100.00;95946.69;4918884;29;20242;-54
2022/09/15 00:18:11;;;;;;;1.17;1.08;;;;;;;17.91;100.00;95944.22;4919390;29;20235;-54
2022/09/15 00:20:40;;;;;;;2.38;1.45;;;;;;;17.76;100.00;95936.41;4919209;29;20279;-54
2022/09/15 00:23:14;;;;;;;2.60;1.10;;;;;;;17.72;100.00;95939.69;4902930;29;20212;-53
2022/09/15 00:25:51;;;;;;;2.22;1.25;;;;;;;17.65;100.00;95931.66;4907276;29;20207;-55
2022/09/15 00:28:20;;;;;;;2.20;0.90;;;;;;;17.62;100.00;95923.22;4919152;29;20676;-54
2022/09/15 00:30:49;;;;;;;1.38;1.10;;;;;;;17.60;100.00;95923.44;4919382;29;20212;-54
2022/09/15 00:33:18;;;;;;;0.90;0.90;;;;;;;17.56;100.00;95914.16;4919033;29;20222;-53
2022/09/15 00:35:47;;;;;;;1.30;0.82;;;;;;;17.55;100.00;95912.50;4918767;29;20246;-53
2022/09/15 00:38:16;;;;;;;1.05;1.00;;;;;;;17.52;100.00;95910.22;4919082;29;20212;-55
2022/09/15 00:40:44;;;;;;;1.60;0.80;;;;;;;17.50;100.00;95898.91;4919188;29;20747;-54
2022/09/15 00:43:11;;;;;;;1.15;1.08;;;;;;;17.47;100.00;95903.81;4916459;29;20276;-52
2022/09/15 00:45:38;;;;;;;2.10;1.23;;;;;;;17.40;100.00;95898.47;4918444;29;20283;-54
2022/09/15 00:48:06;;;;;;;1.63;1.20;;;;;;;17.44;100.00;95889.03;4918805;29;20218;-53
2022/09/15 00:50:33;;;;;;;1.63;1.00;;;;;;;17.40;100.00;95895.81;4919359;29;20625;-53
2022/09/15 00:53:03;;;;;;;1.00;0.90;;;;;;;17.41;100.00;95894.78;4918593;29;20287;-54
2022/09/15 00:55:35;;;;;;;2.13;1.35;;;;;;;17.39;100.00;95892.31;4911513;29;20336;-54
2022/09/15 00:58:05;;;;;;;1.48;1.35;;;;;;;17.42;100.00;95899.94;4919498;29;20231;-54
2022/09/15 01:00:33;;;;;;;1.60;1.50;;;;;;;17.40;100.00;95898.47;4919291;29;20622;-53
2022/09/15 01:03:00;;;;;;;1.70;1.60;;;;;;;17.38;100.00;95896.03;4918914;29;20224;-54
2022/09/15 01:05:30;;;;;;;2.25;1.08;;;;;;;17.38;100.00;95897.88;4919146;29;20296;-55
2022/09/15 01:07:59;;;;;;;2.17;1.10;;;;;;;17.35;100.00;95887.59;4919280;29;20242;-54
2022/09/15 01:10:28;;;;;;;2.65;1.08;;;;;;;17.37;100.00;95890.88;4919286;29;20720;-55
2022/09/15 01:13:03;;;;;;;0.88;0.88;;;;;;;17.41;100.00;95890.25;4911694;29;20231;-54
2022/09/15 01:15:49;;;;;;;1.35;0.98;;;;;;;17.40;100.00;95891.28;4939893;29;20192;-54
2022/09/15 01:18:22;;;;;;;1.08;0.98;;;;;;;17.35;100.00;95890.25;4935948;29;20196;-54
2022/09/15 01:21:01;;;;;;;2.40;1.33;;;;;;;17.39;100.00;95891.50;4923967;29;20206;-55
2022/09/15 01:23:44;;;;;;;1.48;0.82;;;;;;;17.36;100.00;95886.53;4928915;29;20259;-54
2022/09/15 01:26:50;;;;;;;1.13;0.98;;;;;;;17.35;100.00;95883.06;4922307;29;20231;-54
2022/09/15 01:29:44;;;;;;;0.90;0.90;;;;;;;17.32;100.00;95878.09;4912422;29;20211;-54
2022/09/15 01:35:07;;;;;;;1.80;1.08;;;;;;;17.30;100.00;95877.50;4921819;29;20223;-52
2022/09/15 01:37:40;;;;;;;0.90;0.90;;;;;;;17.31;100.00;95872.97;4913457;29;20207;-53
2022/09/15 01:40:09;;;;;;;1.88;1.25;;;;;;;17.29;100.00;95864.31;4921460;29;20299;-53
2022/09/15 01:42:37;;;;;;;0.93;0.80;;;;;;;17.31;100.00;95864.97;4921752;29;20655;-54
2022/09/15 01:45:08;;;;;;;1.08;0.90;;;;;;;17.30;100.00;95866.81;4921618;29;20234;-53
2022/09/15 01:47:35;;;;;;;0.98;0.93;;;;;;;17.31;100.00;95862.28;4921818;29;20204;-54
2022/09/15 01:50:06;;;;;;;1.05;1.00;;;;;;;17.29;100.00;95851.78;4921831;29;20291;-54
2022/09/15 01:52:34;;;;;;;1.17;0.80;;;;;;;17.30;100.00;95852.63;4921493;29;20278;-53
2022/09/15 01:55:04;;;;;;;1.52;0.70;;;;;;;17.30;100.00;95847.28;4919471;29;20326;-54
2022/09/15 01:57:32;;;;;;;1.38;0.98;;;;;;;17.28;100.00;95841.31;4921358;29;20298;-54
2022/09/15 01:59:59;;;;;;;0.77;0.77;;;;;;;17.29;100.00;95845.63;4921131;29;20730;-53
2022/09/15 02:02:32;;;;;;;0.77;0.65;;;;;;;17.26;100.00;95832.66;4920663;29;20207;-52
2022/09/15 02:05:02;;;;;;;1.58;1.02;;;;;;;17.27;100.00;95824.47;4914062;29;20651;-54
2022/09/15 02:07:34;;;;;;;0.70;0.70;;;;;;;17.24;100.00;95818.72;4921130;29;20214;-53
2022/09/15 02:10:06;;;;;;;0.77;0.75;;;;;;;17.24;100.00;95826.72;4921119;29;20221;-52
2022/09/15 02:12:35;;;;;;;2.65;1.10;;;;;;;17.34;100.00;95829.81;4920757;29;20664;-54
2022/09/15 02:15:07;;;;;;;0.75;0.70;;;;;;;17.29;100.00;95826.91;4920925;29;20630;-54
2022/09/15 02:17:38;;;;;;;2.65;0.80;;;;;;;17.33;100.00;95836.16;4921158;29;20291;-54
2022/09/15 02:20:08;;;;;;;0.93;0.80;;;;;;;17.39;100.00;95843.41;4921003;29;20212;-55
2022/09/15 02:22:37;;;;;;;0.75;0.75;;;;;;;17.36;100.00;95847.28;4920987;29;20220;-54
2022/09/15 02:25:06;;;;;;;1.60;0.80;;;;;;;17.36;100.00;95843.78;4919576;29;20296;-53
2022/09/15 02:27:36;;;;;;;0.88;0.80;;;;;;;17.36;100.00;95838.44;4920469;29;20215;-55
2022/09/15 02:30:10;;;;;;;3.30;1.10;;;;;;;17.37;100.00;95845.44;4920472;29;20303;-53
2022/09/15 02:32:41;;;;;;;2.35;1.08;;;;;;;17.37;100.00;95845.44;4910930;29;20213;-53
2022/09/15 02:35:09;;;;;;;0.85;0.80;;;;;;;17.35;100.00;95848.31;4917519;29;20741;-55
2022/09/15 02:37:38;;;;;;;0.82;0.80;;;;;;;17.30;100.00;95847.28;4920656;29;20213;-54
2022/09/15 02:40:06;;;;;;;1.23;1.13;;;;;;;17.25;100.00;95839.06;4920786;29;20208;-53
2022/09/15 02:42:33;;;;;;;1.50;0.93;;;;;;;17.20;100.00;95838.84;4920689;29;20211;-55
2022/09/15 02:45:01;;;;;;;1.17;0.70;;;;;;;17.18;100.00;95838.22;4920270;29;20239;-54
2022/09/15 02:47:28;;;;;;;2.47;0.70;;;;;;;17.12;100.00;95841.69;4920725;29;20542;-54
2022/09/15 02:49:56;;;;;;;0.85;0.73;;;;;;;17.16;100.00;95840.28;4920612;29;20603;-54
2022/09/15 02:52:22;;;;;;;0.73;0.50;;;;;;;17.18;100.00;95841.69;4920205;29;20299;-52
2022/09/15 02:54:49;;;;;;;1.23;0.80;;;;;;;17.18;100.00;95843.56;4920479;29;20263;-53
2022/09/15 02:57:16;;;;;;;0.70;0.70;;;;;;;17.15;100.00;95847.44;4920317;29;20239;-54
2022/09/15 03:02:26;;;;;;;1.33;0.77;;;;;;;17.21;100.00;95835.97;4914441;29;20243;-53
2022/09/15 03:04:53;;;;;;;0.55;0.52;;;;;;;17.24;100.00;95842.75;4926297;29;20197;-54
2022/09/15 03:07:21;;;;;;;2.17;0.82;;;;;;;17.23;100.00;95844.59;4925053;29;20303;-54
2022/09/15 03:09:47;;;;;;;3.20;0.70;;;;;;;17.28;100.00;95846.66;4927080;29;20208;-54
2022/09/15 03:12:14;;;;;;;0.68;0.68;;;;;;;17.32;100.00;95842.56;4934792;29;20203;-55
2022/09/15 03:14:41;;;;;;;0.90;0.60;;;;;;;17.33;100.00;95852.22;4926660;29;20210;-54
2022/09/15 03:17:08;;;;;;;0.63;0.57;;;;;;;17.37;100.00;95848.09;4923162;29;20249;-54
2022/09/15 03:19:34;;;;;;;0.70;0.60;;;;;;;17.39;100.00;95854.88;4918219;29;20235;-55
2022/09/15 03:22:02;;;;;;;1.45;0.80;;;;;;;17.42;100.00;95849.16;4920431;29;20275;-54
2022/09/15 03:24:30;;;;;;;1.80;0.80;;;;;;;17.43;100.00;95857.97;4920504;29;20211;-54
2022/09/15 03:26:56;;;;;;;0.60;0.60;;;;;;;17.47;100.00;95851.19;4919922;29;20243;-54
2022/09/15 03:29:24;;;;;;;0.55;0.55;;;;;;;17.47;100.00;95851.19;4924709;29;20280;-54
2022/09/15 03:31:52;;;;;;;1.20;0.80;;;;;;;17.50;100.00;95850.78;4936457;29;20199;-54
2022/09/15 03:34:19;;;;;;;0.70;0.70;;;;;;;17.57;100.00;95846.28;4918190;29;20226;-54
2022/09/15 03:36:46;;;;;;;1.08;0.88;;;;;;;17.55;100.00;95851.00;4920600;29;20232;-53
2022/09/15 03:39:13;;;;;;;1.70;0.65;;;;;;;17.56;100.00;95859.84;4919413;29;20258;-53
2022/09/15 03:41:41;;;;;;;1.05;0.52;;;;;;;17.54;100.00;95857.38;4919217;29;20298;-54
2022/09/15 03:44:07;;;;;;;0.50;0.50;;;;;;;17.56;100.00;95855.34;4919659;29;20625;-54
2022/09/15 03:46:34;;;;;;;0.95;0.70;;;;;;;17.56;100.00;95859.84;4920106;29;20658;-54
2022/09/15 03:49:01;;;;;;;0.73;0.60;;;;;;;17.55;100.00;95853.66;4919483;29;20302;-55
2022/09/15 03:51:28;;;;;;;0.98;0.60;;;;;;;17.56;100.00;95847.34;4919119;29;20243;-53
2022/09/15 03:53:55;;;;;;;1.17;0.80;;;;;;;17.55;100.00;95856.34;4908356;29;20247;-53
2022/09/15 03:56:24;;;;;;;0.60;0.60;;;;;;;17.56;100.00;95852.69;4917606;29;20612;-52
2022/09/15 03:58:53;;;;;;;0.70;0.70;;;;;;;17.58;100.00;95845.28;4918792;29;20257;-53
2022/09/15 04:01:20;;;;;;;1.55;0.95;;;;;;;17.58;100.00;95847.94;4918870;29;20208;-54
2022/09/15 04:03:47;;;;;;;0.77;0.73;;;;;;;17.59;100.00;95848.78;4918596;29;20728;-54
2022/09/15 04:06:14;;;;;;;1.38;0.80;;;;;;;17.60;100.00;95845.91;4918777;29;20214;-54
2022/09/15 04:08:40;;;;;;;1.48;0.70;;;;;;;17.61;100.00;95847.53;4918934;29;20294;-55
2022/09/15 04:11:08;;;;;;;0.60;0.60;;;;;;;17.69;100.00;95844.66;4918520;29;20230;-54
2022/09/15 04:13:35;;;;;;;1.85;1.00;;;;;;;17.64;100.00;95840.97;4918540;29;20276;-54
2022/09/15 04:16:06;;;;;;;1.55;0.98;;;;;;;17.66;100.00;95852.25;4906315;29;20319;-55
2022/09/15 04:18:33;;;;;;;0.80;0.80;;;;;;;17.68;100.00;95848.34;4919040;29;20641;-53
2022/09/15 04:21:01;;;;;;;0.93;0.85;;;;;;;17.70;100.00;95846.31;4918324;29;20712;-54
2022/09/15 04:23:27;;;;;;;3.92;0.93;;;;;;;17.66;100.00;95850.41;4918134;29;20729;-53
2022/09/15 04:25:55;;;;;;;1.25;0.80;;;;;;;17.64;100.00;95852.47;4918305;29;20207;-54
2022/09/15 04:28:22;;;;;;;2.90;2.58;;;;;;;17.65;100.00;95848.75;4918416;29;20223;-53
2022/09/15 04:30:48;;;;;;;1.58;1.48;;;;;;;17.64;100.00;95844.44;4918545;29;20212;-54
2022/09/15 04:33:16;;;;;;;1.08;0.98;;;;;;;17.68;100.00;95836.81;4918478;29;20295;-54
2022/09/15 04:35:43;;;;;;;1.27;0.90;;;;;;;17.65;100.00;95840.75;4913535;29;20234;-56
2022/09/15 04:38:10;;;;;;;1.38;0.80;;;;;;;17.63;100.00;95840.13;4911199;29;20251;-54
2022/09/15 04:40:36;;;;;;;1.02;1.00;;;;;;;17.68;100.00;95832.31;4909692;29;20211;-54
2022/09/15 04:43:03;;;;;;;1.98;0.90;;;;;;;17.68;100.00;95832.31;4909646;29;20239;-52
2022/09/15 04:45:32;;;;;;;1.35;1.08;;;;;;;17.73;100.00;95827.16;4910977;29;20287;-53
2022/09/15 04:47:59;;;;;;;3.33;0.82;;;;;;;17.81;100.00;95826.97;4910282;29;20204;-53
2022/09/15 04:50:27;;;;;;;1.13;0.68;;;;;;;17.77;100.00;95824.91;4910074;29;20295;-54
2022/09/15 04:52:53;;;;;;;1.98;1.00;;;;;;;17.74;100.00;95826.16;4914395;29;20228;-53
2022/09/15 04:55:20;;;;;;;1.33;0.90;;;;;;;17.77;100.00;95824.91;4909872;29;20339;-54
2022/09/15 04:57:47;;;;;;;0.77;0.70;;;;;;;17.77;100.00;95830.25;4916403;29;20218;-52
2022/09/15 05:00:15;;;;;;;1.17;1.08;;;;;;;17.77;100.00;95833.75;4918401;29;20291;-53
2022/09/15 05:02:42;;;;;;;0.70;0.70;;;;;;;17.77;100.00;95827.56;4917771;29;20794;-52
2022/09/15 05:05:09;;;;;;;0.82;0.80;;;;;;;17.75;100.00;95827.78;4917811;29;20212;-52
2022/09/15 05:07:37;;;;;;;1.45;0.75;;;;;;;17.73;100.00;95831.69;4918442;29;20310;-51
2022/09/15 05:10:04;;;;;;;1.08;1.02;;;;;;;17.68;100.00;95826.97;4918135;29;20708;-52
2022/09/15 05:12:34;;;;;;;0.90;0.90;;;;;;;17.71;100.00;95826.53;4918098;29;20303;-53
2022/09/15 05:15:01;;;;;;;0.77;0.77;;;;;;;17.71;100.00;95826.53;4918857;29;20287;-52
2022/09/15 05:17:31;;;;;;;1.17;1.00;;;;;;;17.72;100.00;95825.53;4918207;29;20228;-63
2022/09/15 05:19:59;;;;;;;1.08;0.95;;;;;;;17.77;100.00;95828.41;4901643;29;20310;-51
2022/09/15 05:22:25;;;;;;;1.10;1.00;;;;;;;17.80;100.00;95822.63;4917833;29;20696;-51
2022/09/15 05:24:54;;;;;;;0.90;0.90;;;;;;;17.81;100.00;95835.00;4918242;29;20295;-50
2022/09/15 05:27:20;;;;;;;1.48;0.73;;;;;;;17.84;100.00;95834.56;4918187;29;20208;-52
2022/09/15 05:29:47;;;;;;;1.30;1.20;;;;;;;17.83;100.00;95843.63;4917339;29;20300;-55
2022/09/15 05:32:14;;;;;;;1.40;1.15;;;;;;;17.73;100.00;95835.19;4917454;29;20208;-54
2022/09/15 05:34:41;;;;;;;2.40;1.13;;;;;;;17.73;100.00;95835.19;4915100;29;20675;-53
2022/09/15 05:37:09;;;;;;;3.03;0.95;;;;;;;17.74;100.00;95836.84;4905928;29;20631;-55
2022/09/15 05:39:36;;;;;;;1.55;1.10;;;;;;;17.74;100.00;95830.69;4917511;29;20212;-54
2022/09/15 05:42:05;;;;;;;1.33;1.23;;;;;;;17.74;100.00;95823.47;4917723;29;20207;-55
2022/09/15 05:44:31;;;;;;;1.23;0.85;;;;;;;17.73;100.00;95824.50;4917553;29;20318;-54
2022/09/15 05:46:58;;;;;;;1.38;1.05;;;;;;;17.75;100.00;95826.94;4920996;29;20247;-54
2022/09/15 05:49:25;;;;;;;1.17;1.08;;;;;;;17.73;100.00;95821.81;4926256;29;20250;-54
2022/09/15 05:51:51;;;;;;;1.42;1.33;;;;;;;17.73;100.00;95835.19;4919495;29;20299;-53
2022/09/15 05:54:18;;;;;;;2.10;1.02;;;;;;;17.69;100.00;95833.97;4918446;29;20613;-53
2022/09/15 05:56:45;;;;;;;1.05;0.75;;;;;;;17.67;100.00;95836.03;4917685;29;20940;-54
2022/09/15 05:59:13;;;;;;;1.67;0.90;;;;;;;17.58;100.00;95829.22;4917854;29;20296;-55
2022/09/15 06:01:40;;;;;;;4.57;1.40;;;;;;;17.60;100.00;95824.50;4912829;29;20311;-55
2022/09/15 06:04:06;;;;;;;1.17;0.85;;;;;;;17.65;100.00;95822.03;4916347;29;20229;-53
2022/09/15 06:06:33;;;;;;;1.25;0.90;;;;;;;17.66;100.00;95820.19;4921417;29;20294;-54
2022/09/15 06:09:00;;;;;;;1.95;1.02;;;;;;;17.65;100.00;95824.69;4921891;29;20639;-55
2022/09/15 06:11:28;;;;;;;2.58;0.98;;;;;;;17.62;100.00;95825.13;4921220;29;20291;-55
2022/09/15 06:13:55;;;;;;;1.13;1.08;;;;;;;17.65;100.00;95822.03;4920986;29;20322;-54
2022/09/15 06:16:24;;;;;;;0.98;0.95;;;;;;;17.69;100.00;95823.25;4921227;29;20235;-53
2022/09/15 06:18:52;;;;;;;1.58;1.08;;;;;;;17.69;100.00;95836.63;4921232;29;20238;-54
2022/09/15 06:21:20;;;;;;;1.13;0.90;;;;;;;17.62;100.00;95837.66;4921218;29;20217;-53
2022/09/15 06:23:53;;;;;;;1.20;0.98;;;;;;;17.67;100.00;95844.06;4921476;29;20302;-55
2022/09/15 06:26:20;;;;;;;3.47;1.02;;;;;;;17.65;100.00;95853.28;4920904;29;20544;-54
2022/09/15 06:28:48;;;;;;;1.70;1.13;;;;;;;17.65;100.00;95858.63;4920858;29;20229;-53
2022/09/15 06:31:15;;;;;;;2.10;1.20;;;;;;;17.64;100.00;95857.81;4920906;29;20661;-53
2022/09/15 06:33:44;;;;;;;1.55;1.10;;;;;;;17.67;100.00;95860.09;4920168;29;20291;-54
2022/09/15 06:36:11;;;;;;;1.00;0.82;;;;;;;17.68;100.00;95860.88;4921728;29;20326;-54
2022/09/15 06:38:39;;;;;;;1.10;0.98;;;;;;;17.70;100.00;95873.03;4922388;29;20212;-55
2022/09/15 06:41:06;;;;;;;1.10;1.00;;;;;;;17.72;100.00;95880.84;4921786;29;20204;-55
2022/09/15 06:43:33;;;;;;;2.28;1.30;;;;;;;17.73;100.00;95877.16;4916001;29;20276;-55
2022/09/15 06:46:04;;;;;;;2.97;1.40;;;;;;;17.79;100.00;95879.00;4916313;29;20210;-54
2022/09/15 06:48:32;;;;;;;1.30;1.20;;;;;;;17.80;100.00;95878.81;4909052;29;20218;-56
2022/09/15 06:51:00;;;;;;;1.15;1.05;;;;;;;17.85;100.00;95887.00;4921215;29;20529;-56
2022/09/15 06:53:28;;;;;;;1.10;1.00;;;;;;;17.90;100.00;95895.25;4921145;29;20231;-55
2022/09/15 06:55:55;;;;;;;3.60;1.65;;;;;;;17.96;100.00;95896.25;4921980;29;20275;-55
2022/09/15 06:58:21;;;;;;;2.40;1.20;;;;;;;18.01;100.00;95899.16;4920172;29;20645;-55
2022/09/15 07:00:48;;;;;;;1.58;1.10;;;;;;;17.98;100.00;95901.41;4920177;29;20223;-53
2022/09/15 07:03:15;;;;;;;1.27;1.00;;;;;;;18.05;100.00;95910.25;4919840;29;20302;-54
2022/09/15 07:05:44;;;;;;;3.10;1.77;;;;;;;18.06;100.00;95893.19;4920240;29;20299;-54
2022/09/15 07:08:13;;;;;;;2.83;1.20;;;;;;;18.09;100.00;95908.81;4920211;29;20247;-57
2022/09/15 07:10:42;;;;;;;3.05;1.15;;;;;;;18.10;100.00;95927.38;4906881;29;20216;-55
2022/09/15 07:13:09;;;;;;;1.25;1.15;;;;;;;18.06;100.00;95927.97;4919452;29;20295;-54
2022/09/15 07:15:36;;;;;;;1.85;1.50;;;;;;;18.05;100.00;95923.66;4919655;29;20212;-53
2022/09/15 07:18:02;;;;;;;2.45;1.33;;;;;;;18.08;100.00;95928.56;4919600;29;20231;-54
2022/09/15 07:20:29;;;;;;;1.40;1.25;;;;;;;18.07;100.00;95943.81;4906498;29;20306;-54
2022/09/15 07:22:55;;;;;;;1.27;1.17;;;;;;;18.08;100.00;95941.94;4919567;29;20211;-54
2022/09/15 07:25:23;;;;;;;2.00;1.20;;;;;;;18.05;100.00;95948.56;4919221;29;20716;-55
2022/09/15 07:27:50;;;;;;;2.25;0.95;;;;;;;18.05;100.00;95958.44;4919443;29;20299;-53
2022/09/15 07:30:17;;;;;;;2.15;1.20;;;;;;;18.00;100.00;95958.22;4918770;29;20335;-55
2022/09/15 07:32:44;;;;;;;0.98;0.85;;;;;;;17.97;100.00;95942.56;4919389;29;20240;-54
2022/09/15 07:35:11;;;;;;;2.33;1.23;;;;;;;17.95;100.00;95944.66;4919765;29;20299;-55
2022/09/15 07:37:38;;;;;;;3.35;1.45;;;;;;;17.92;100.00;95950.41;4919544;29;20232;-55
2022/09/15 07:40:05;;;;;;;1.85;1.48;;;;;;;17.86;100.00;95942.16;4919571;29;20663;-56
2022/09/15 07:42:33;;;;;;;3.10;1.40;;;;;;;17.86;100.00;95939.50;4919425;29;20247;-54
2022/09/15 07:45:00;;;;;;;2.53;1.75;;;;;;;17.86;100.00;95947.50;4919517;29;20244;-54
2022/09/15 07:47:27;;;;;;;2.13;1.35;;;;;;;17.81;100.00;95936.63;4919825;29;20557;-55
2022/09/15 07:49:54;;;;;;;1.88;1.38;;;;;;;17.81;100.00;95941.97;4919543;29;20208;-56
2022/09/15 07:52:20;;;;;;;2.45;1.45;;;;;;;17.83;100.00;95945.25;4919577;29;20693;-55
2022/09/15 07:54:48;;;;;;;1.70;1.50;;;;;;;17.84;100.00;95944.22;4919517;29;20247;-54
2022/09/15 07:57:15;;;;;;;2.25;1.42;;;;;;;17.79;100.00;95952.03;4919422;29;20314;-54
2022/09/15 07:59:43;;;;;;;1.95;1.65;;;;;;;17.77;100.00;95962.13;4919466;29;20307;-55
2022/09/15 08:02:16;;;;;;;3.25;1.88;;;;;;;17.75;100.00;95971.34;4919326;29;20294;-54
2022/09/15 08:04:42;;;;;;;2.90;1.80;;;;;;;17.79;100.00;95972.59;4919919;29;20223;-54
2022/09/15 08:07:09;;;;;;;1.73;1.48;;;;;;;17.80;100.00;95964.38;4902925;29;20208;-55
2022/09/15 08:09:36;;;;;;;1.90;1.58;;;;;;;17.79;100.00;95973.44;4919193;29;20303;-55
2022/09/15 08:12:04;;;;;;;2.03;1.80;;;;;;;17.81;100.00;95966.03;4919182;29;20218;-53
2022/09/15 08:14:31;;;;;;;4.43;3.90;;;;;;;17.83;100.00;95974.66;4918591;29;20246;-55
2022/09/15 08:17:00;;;;;;;3.03;2.00;;;;;;;17.81;100.00;95967.88;4918849;29;20331;-55
2022/09/15 08:19:26;;;;;;;1.95;1.42;;;;;;;17.81;100.00;95978.59;4918782;29;20656;-54
2022/09/15 08:21:54;;;;;;;2.08;1.77;;;;;;;17.80;100.00;95984.97;4918701;29;20258;-54
2022/09/15 08:24:22;;;;;;;2.22;1.65;;;;;;;17.82;100.00;95978.38;4918269;29;20652;-55
2022/09/15 08:26:49;;;;;;;2.25;2.00;;;;;;;17.84;100.00;95978.19;4918558;29;20214;-55
2022/09/15 08:29:16;;;;;;;1.92;1.77;;;;;;;17.86;100.00;95979.59;4919079;29;20219;-55
2022/09/15 08:31:43;;;;;;;2.08;1.63;;;;;;;17.78;100.00;95966.41;4918756;29;20208;-54
2022/09/15 08:34:12;;;;;;;1.80;1.70;;;;;;;17.86;100.00;95976.94;4918945;29;20215;-54
2022/09/15 08:36:39;;;;;;;2.85;1.73;;;;;;;17.90;100.00;95980.03;4918958;29;20231;-54
2022/09/15 08:39:07;;;;;;;2.15;1.60;;;;;;;17.97;100.00;95985.38;4918747;29;20649;-55
2022/09/15 08:41:35;;;;;;;1.83;1.70;;;;;;;18.03;100.00;95995.28;4920179;29;20212;-55
2022/09/15 08:44:06;;;;;;;2.08;1.80;;;;;;;18.09;100.00;95997.94;4919299;29;20684;-55
2022/09/15 08:46:37;;;;;;;1.90;1.80;;;;;;;18.15;100.00;95998.97;4919857;29;20611;-55
2022/09/15 08:49:09;;;;;;;1.98;1.80;;;;;;;18.21;100.00;95998.16;4919436;29;20721;-55
2022/09/15 08:51:41;;;;;;;3.13;1.58;;;;;;;18.24;100.00;96008.47;4919502;29;20306;-55
2022/09/15 08:54:14;;;;;;;2.85;1.63;;;;;;;18.22;100.00;96005.16;4919490;29;20254;-55
2022/09/15 08:56:41;;;;;;;3.45;2.25;;;;;;;18.28;100.00;96004.34;4900238;29;20622;-54
2022/09/15 08:59:12;;;;;;;3.90;2.42;;;;;;;18.23;100.00;96004.13;4913001;29;20291;-54
2022/09/15 09:01:53;;;;;;;2.30;1.67;;;;;;;18.27;100.00;96003.53;4906240;29;20211;-54
2022/09/15 09:04:37;;;;;;;2.25;1.80;;;;;;;18.23;100.00;96017.50;4918394;29;20290;-55
2022/09/15 09:07:16;;;;;;;2.53;1.58;;;;;;;18.26;100.00;96015.25;4918057;29;20235;-54
2022/09/15 09:09:46;;;;;;;5.05;1.95;;;;;;;18.31;100.00;96011.97;4905989;29;20599;-56
2022/09/15 09:12:41;;;;;;;1.50;1.38;;;;;;;18.36;100.00;96012.97;4918456;29;20196;-56
2022/09/15 09:15:33;;;;;;;2.63;1.95;;;;;;;18.35;100.00;96010.53;4918363;29;20681;-57
2022/09/15 09:18:10;;;;;;;2.22;1.40;;;;;;;18.37;100.00;96011.13;4914498;29;20283;-56
2022/09/15 09:20:43;;;;;;;1.58;1.48;;;;;;;18.26;100.00;96011.75;4917179;29;20254;-56
2022/09/15 09:23:14;;;;;;;2.05;1.77;;;;;;;18.29;100.00;96011.31;4917736;29;20211;-56
2022/09/15 09:25:41;;;;;;;3.50;1.42;;;;;;;18.28;100.00;96017.72;4917591;29;20201;-55
2022/09/15 09:28:20;;;;;;;2.25;1.50;;;;;;;18.24;100.00;96019.16;4915879;29;20212;-56
2022/09/15 09:30:48;;;;;;;2.95;1.45;;;;;;;18.12;100.00;96026.97;4917562;29;20669;-55
2022/09/15 09:33:24;;;;;;;2.05;1.67;;;;;;;18.08;100.00;96008.84;4917923;29;20267;-55
2022/09/15 09:35:52;;;;;;;1.63;1.25;;;;;;;18.06;100.00;96005.56;4919334;29;20287;-55
2022/09/15 09:38:22;;;;;;;1.83;1.23;;;;;;;17.94;100.00;96004.50;4921441;29;20239;-54
2022/09/15 09:40:49;;;;;;;1.88;1.38;;;;;;;17.94;100.00;96001.84;4921702;29;20196;-55
2022/09/15 09:43:16;;;;;;;2.03;1.42;;;;;;;18.00;100.00;96003.69;4921000;29;20299;-54
2022/09/15 09:45:44;;;;;;;1.55;1.40;;;;;;;17.99;100.00;95994.88;4921600;29;20227;-55
2022/09/15 09:48:15;;;;;;;1.23;1.10;;;;;;;17.99;100.00;95989.50;4921426;29;20211;-54
2022/09/15 09:50:43;;;;;;;3.10;1.58;;;;;;;18.01;100.00;95998.16;4908910;29;20560;-56
2022/09/15 09:53:18;;;;;;;2.47;1.30;;;;;;;18.02;100.00;95993.63;4908256;29;20652;-54
2022/09/15 09:55:46;;;;;;;1.50;1.40;;;;;;;17.92;100.00;95984.13;4904891;29;20235;-55
2022/09/15 09:58:17;;;;;;;1.00;1.00;;;;;;;17.95;100.00;95987.44;4921434;29;20286;-55
2022/09/15 10:00:44;;;;;;;1.25;1.15;;;;;;;17.99;100.00;95989.50;4921378;29;20235;-54
2022/09/15 10:03:14;;;;;;;5.57;1.42;;;;;;;18.03;100.00;95987.25;4921283;29;20292;-55
2022/09/15 10:05:41;;;;;;;1.88;1.55;;;;;;;18.01;100.00;95986.63;4921506;29;20238;-55
2022/09/15 10:08:15;;;;;;;3.15;1.92;;;;;;;18.00;100.00;95987.63;4921501;29;20302;-54
2022/09/15 10:10:51;;;;;;;2.70;1.73;;;;;;;17.95;100.00;95990.13;4921621;29;20204;-54
2022/09/15 10:13:17;;;;;;;2.15;1.45;;;;;;;17.94;100.00;95988.47;4921448;29;20211;-55
2022/09/15 10:15:52;;;;;;;4.93;1.35;;;;;;;17.86;100.00;95978.78;4921109;29;20239;-55
2022/09/15 10:18:29;;;;;;;5.38;1.40;;;;;;;17.82;100.00;95978.38;4920832;29;20269;-55
2022/09/15 10:20:58;;;;;;;1.40;1.30;;;;;;;17.83;100.00;95974.66;4902277;29;20303;-54
2022/09/15 10:23:26;;;;;;;2.60;1.48;;;;;;;17.85;100.00;95975.28;4904362;29;20657;-55
2022/09/15 10:25:55;;;;;;;2.45;1.55;;;;;;;17.97;100.00;95955.94;4920900;29;20222;-55
2022/09/15 10:28:24;;;;;;;1.35;1.27;;;;;;;18.00;100.00;95963.56;4920829;29;20589;-54
2022/09/15 10:31:04;;;;;;;1.85;1.75;;;;;;;18.04;100.00;95967.47;4921294;29;20212;-55
2022/09/15 10:33:33;;;;;;;4.15;2.15;;;;;;;18.15;100.00;95975.72;4921074;29;20235;-56
2022/09/15 10:36:04;;;;;;;1.75;1.65;;;;;;;18.35;100.00;95963.13;4921012;29;20222;-56
2022/09/15 10:38:36;;;;;;;1.33;1.00;;;;;;;18.47;100.00;95962.50;4920731;29;20503;-55
2022/09/15 10:41:18;;;;;;;1.70;1.60;;;;;;;18.71;100.00;95967.22;4922148;29;20287;-56
2022/09/15 10:43:56;;;;;;;1.42;1.33;;;;;;;18.86;100.00;95965.97;4910263;29;20252;-55
2022/09/15 10:46:27;;;;;;;1.63;1.52;;;;;;;19.08;100.00;95963.00;4920907;29;20271;-55
2022/09/15 10:49:08;;;;;;;2.35;1.30;;;;;;;19.19;100.00;95960.47;4920517;29;20530;-54
2022/09/15 10:51:45;;;;;;;1.30;1.23;;;;;;;19.19;100.00;95962.34;4920277;29;20219;-55
2022/09/15 10:54:27;;;;;;;1.40;1.30;;;;;;;19.26;100.00;95960.44;4920635;29;20211;-55
2022/09/15 10:56:58;;;;;;;2.63;1.35;;;;;;;19.38;100.00;95958.72;4920424;29;20725;-54
2022/09/15 10:59:38;;;;;;;1.55;1.40;;;;;;;19.40;100.00;95962.03;4920482;29;20235;-56
2022/09/15 11:02:21;;;;;;;3.63;1.55;;;;;;;19.41;100.00;95958.34;4920390;29;20501;-54
2022/09/15 11:05:23;;;;;;;2.90;1.50;;;;;;;19.45;100.00;95959.53;4908659;29;20282;-55
2022/09/15 11:07:58;;;;;;;1.45;1.35;;;;;;;19.45;100.00;95962.22;4843375;29;20206;-55
2022/09/15 11:10:31;;;;;;;1.90;1.40;;;;;;;19.25;100.00;95958.78;4909027;29;20211;-56
2022/09/15 11:13:05;;;;;;;1.80;1.63;;;;;;;19.19;100.00;95965.84;4919999;29;20279;-56
2022/09/15 11:15:43;;;;;;;4.20;1.77;;;;;;;18.97;100.00;95966.34;4919609;29;20640;-54
2022/09/15 11:18:21;;;;;;;1.48;1.38;;;;;;;18.99;100.00;95966.97;4908491;29;20235;-56
2022/09/15 11:20:59;;;;;;;1.70;1.50;;;;;;;18.79;100.00;95962.47;4908074;29;20287;-55
2022/09/15 11:23:32;;;;;;;2.10;1.70;;;;;;;18.83;100.00;95947.63;4920163;29;20227;-54
2022/09/15 11:26:03;;;;;;;1.60;1.40;;;;;;;18.80;100.00;95949.91;4920356;29;20200;-55
2022/09/15 11:28:37;;;;;;;2.08;1.25;;;;;;;18.80;100.00;95952.59;4920074;29;20219;-54
2022/09/15 11:31:10;;;;;;;2.17;1.30;;;;;;;18.87;100.00;95962.25;4919942;29;20235;-54
2022/09/15 11:33:43;;;;;;;2.03;1.38;;;;;;;19.00;100.00;95965.91;4914750;29;20208;-58
2022/09/15 11:36:16;;;;;;;2.08;1.85;;;;;;;18.89;100.00;95957.50;4913326;29;20200;-55
2022/09/15 11:38:49;;;;;;;1.67;1.52;;;;;;;18.84;100.00;95962.69;4919785;29;20219;-55
2022/09/15 11:41:21;;;;;;;2.33;1.77;;;;;;;18.88;100.00;95958.53;4919757;29;20267;-54